createdAt,value
2022-09-23T00:01:34.225Z,6.39
2022-09-23T00:04:01.909Z,6.33
2022-09-23T00:06:29.411Z,6.23
2022-09-23T00:08:57.333Z,6.15
2022-09-23T00:11:27.569Z,6.18
2022-09-23T00:13:58.635Z,6.18
2022-09-23T00:16:29.402Z,6.15
2022-09-23T00:18:59.300Z,6.06
2022-09-23T00:21:26.873Z,6.01
2022-09-23T00:23:54.567Z,6.03
2022-09-23T00:26:24.131Z,5.97
2022-09-23T00:28:52.038Z,5.94
2022-09-23T00:31:26.109Z,5.96
2022-09-23T00:33:59.705Z,5.93
2022-09-23T00:36:28.858Z,5.85
2022-09-23T00:38:56.736Z,5.83
2022-09-23T00:41:25.660Z,5.84
2022-09-23T00:43:58.808Z,5.82
2022-09-23T00:46:36.307Z,5.75
2022-09-23T00:49:27.085Z,5.75
2022-09-23T00:52:01.601Z,5.74
2022-09-23T00:54:32.913Z,5.68
2022-09-23T00:57:01.685Z,5.62
2022-09-23T00:59:29.872Z,5.54
2022-09-23T01:01:58.837Z,5.52
2022-09-23T01:04:29.210Z,5.56
2022-09-23T01:06:56.975Z,5.49
2022-09-23T01:09:25.746Z,5.49
2022-09-23T01:12:10.127Z,5.44
2022-09-23T01:14:56.149Z,5.41
2022-09-23T01:17:27.356Z,5.38
2022-09-23T01:20:13.821Z,5.36
2022-09-23T01:23:29.596Z,5.39
2022-09-23T01:26:16.134Z,5.38
2022-09-23T01:29:05.050Z,5.37
2022-09-23T01:31:42.925Z,5.37
2022-09-23T01:34:27.285Z,5.34
2022-09-23T01:37:05.593Z,5.38
2022-09-23T01:39:40.573Z,5.41
2022-09-23T01:42:22.150Z,5.47
2022-09-23T01:45:00.732Z,5.45
2022-09-23T01:47:31.517Z,5.46
2022-09-23T01:50:27.714Z,5.51
2022-09-23T01:52:59.094Z,5.53
2022-09-23T01:55:35.138Z,5.51
2022-09-23T01:58:09.459Z,5.46
2022-09-23T02:00:42.803Z,5.48
2022-09-23T02:03:22.134Z,5.47
2022-09-23T02:05:54.432Z,5.47
2022-09-23T02:08:24.622Z,5.45
2022-09-23T02:11:24.599Z,5.45
2022-09-23T02:14:00.521Z,5.43
2022-09-23T02:16:51.431Z,5.42
2022-09-23T02:19:27.175Z,5.42
2022-09-23T02:22:06.126Z,5.43
2022-09-23T02:24:39.921Z,5.45
2022-09-23T02:27:10.429Z,5.42
2022-09-23T02:30:02.586Z,5.46
2022-09-23T02:32:37.130Z,5.53
2022-09-23T02:35:13.425Z,5.51
2022-09-23T02:37:59.544Z,5.48
2022-09-23T02:40:38.852Z,5.49
2022-09-23T02:43:28.084Z,5.49
2022-09-23T02:45:56.403Z,5.46
2022-09-23T02:48:33.262Z,5.43
2022-09-23T02:51:03.653Z,5.37
2022-09-23T02:53:34.719Z,5.38
2022-09-23T02:56:03.446Z,5.34
2022-09-23T02:58:31.178Z,5.32
2022-09-23T03:01:32.654Z,5.27
2022-09-23T03:04:17.052Z,5.22
2022-09-23T03:06:59.957Z,5.17
2022-09-23T03:10:04.435Z,5.17
2022-09-23T03:12:52.932Z,5.14
2022-09-23T03:15:53.459Z,5.08
2022-09-23T03:18:44.751Z,5.03
2022-09-23T03:21:24.663Z,4.98
2022-09-23T03:23:54.661Z,4.96
2022-09-23T03:26:26.534Z,4.97
2022-09-23T03:28:54.942Z,4.92
2022-09-23T03:31:30.190Z,4.81
2022-09-23T03:34:01.302Z,4.84
2022-09-23T03:36:53.926Z,4.83
2022-09-23T03:39:33.459Z,4.87
2022-09-23T03:42:07.546Z,4.88
2022-09-23T03:44:39.703Z,4.75
2022-09-23T03:47:07.806Z,4.74
2022-09-23T03:49:40.306Z,4.69
2022-09-23T03:52:08.002Z,4.69
2022-09-23T03:54:40.077Z,4.72
2022-09-23T03:57:07.619Z,4.71
2022-09-23T03:59:37.981Z,4.67
2022-09-23T04:02:09.321Z,4.60
2022-09-23T04:04:41.122Z,4.59
2022-09-23T04:07:08.830Z,4.60
2022-09-23T04:09:36.855Z,4.58
2022-09-23T04:12:05.487Z,4.57
2022-09-23T04:14:32.995Z,4.55
2022-09-23T04:17:00.545Z,4.56
2022-09-23T04:19:29.675Z,4.55
2022-09-23T04:21:57.336Z,4.53
2022-09-23T04:24:25.079Z,4.48
2022-09-23T04:26:57.013Z,4.49
2022-09-23T04:29:25.538Z,4.48
2022-09-23T04:31:53.668Z,4.51
2022-09-23T04:34:23.600Z,4.51
2022-09-23T04:36:51.672Z,4.44
2022-09-23T04:39:19.482Z,4.45
2022-09-23T04:41:47.567Z,4.44
2022-09-23T04:44:16.062Z,4.42
2022-09-23T04:46:48.022Z,4.44
2022-09-23T04:49:18.993Z,4.43
2022-09-23T04:51:46.733Z,4.49
2022-09-23T04:54:17.666Z,4.52
2022-09-23T04:56:45.234Z,4.50
2022-09-23T04:59:15.692Z,4.55
2022-09-23T05:01:47.612Z,4.65
2022-09-23T05:04:15.363Z,4.69
2022-09-23T05:06:45.137Z,4.70
2022-09-23T05:09:17.998Z,4.75
2022-09-23T05:11:46.131Z,4.76
2022-09-23T05:14:13.808Z,4.78
2022-09-23T05:16:41.767Z,4.83
2022-09-23T05:19:09.338Z,4.93
2022-09-23T05:21:37.825Z,4.97
2022-09-23T05:24:05.686Z,5.04
2022-09-23T05:26:34.014Z,5.15
2022-09-23T05:29:02.897Z,5.23
2022-09-23T05:31:31.777Z,5.33
2022-09-23T05:34:02.112Z,5.41
2022-09-23T05:36:36.928Z,5.49
2022-09-23T05:39:05.918Z,5.58
2022-09-23T05:41:33.902Z,5.71
2022-09-23T05:44:01.768Z,5.82
2022-09-23T05:46:31.459Z,5.93
2022-09-23T05:49:02.855Z,6.04
2022-09-23T05:51:31.880Z,6.16
2022-09-23T05:54:02.867Z,6.30
2022-09-23T05:56:34.699Z,6.44
2022-09-23T05:59:03.359Z,6.57
2022-09-23T06:01:35.254Z,6.67
2022-09-23T06:04:04.612Z,6.78
2022-09-23T06:06:35.399Z,6.92
2022-09-23T06:09:03.657Z,7.04
2022-09-23T06:11:32.465Z,7.22
2022-09-23T06:14:02.226Z,7.35
2022-09-23T06:16:34.787Z,7.56
2022-09-23T06:19:06.326Z,7.72
2022-09-23T06:21:36.782Z,7.93
2022-09-23T06:24:04.814Z,8.12
2022-09-23T06:26:34.952Z,8.33
2022-09-23T06:29:06.735Z,8.54
2022-09-23T06:31:34.448Z,8.78
2022-09-23T06:34:10.800Z,8.96
2022-09-23T06:36:44.482Z,9.16
2022-09-23T06:39:13.349Z,9.42
2022-09-23T06:41:40.909Z,9.62
2022-09-23T06:44:08.596Z,9.89
2022-09-23T06:46:36.797Z,10.21
2022-09-23T06:49:04.493Z,10.40
2022-09-23T06:51:32.022Z,10.63
2022-09-23T06:53:59.666Z,10.84
2022-09-23T06:56:27.257Z,11.03
2022-09-23T06:58:55.947Z,11.24
2022-09-23T07:01:24.285Z,11.45
2022-09-23T07:03:52.079Z,11.66
2022-09-23T07:06:19.961Z,11.81
2022-09-23T07:08:48.461Z,11.99
2022-09-23T07:11:22.594Z,12.27
2022-09-23T07:13:52.378Z,12.61
2022-09-23T07:16:21.217Z,13.11
2022-09-23T07:18:48.827Z,14.19
2022-09-23T07:21:19.591Z,15.26
2022-09-23T07:23:50.095Z,16.35
2022-09-23T07:26:22.905Z,17.37
2022-09-23T07:28:56.409Z,18.10
2022-09-23T07:31:37.976Z,18.89
2022-09-23T07:34:08.495Z,19.68
2022-09-23T07:36:40.502Z,20.57
2022-09-23T07:39:11.225Z,21.27
2022-09-23T07:41:38.785Z,21.43
2022-09-23T07:44:06.914Z,21.45
2022-09-23T07:46:37.330Z,20.74
2022-09-23T07:49:06.240Z,21.81
2022-09-23T07:51:39.039Z,21.89
2022-09-23T07:54:10.615Z,22.20
2022-09-23T07:56:39.457Z,22.41
2022-09-23T07:59:11.124Z,22.38
2022-09-23T08:01:41.250Z,23.29
2022-09-23T08:04:29.759Z,23.66
2022-09-23T08:07:00.113Z,23.37
2022-09-23T08:09:35.718Z,23.68
2022-09-23T08:12:03.716Z,22.63
2022-09-23T08:14:31.306Z,23.87
2022-09-23T08:16:59.488Z,23.81
2022-09-23T08:19:27.192Z,23.24
2022-09-23T08:21:55.124Z,23.84
2022-09-23T08:24:24.182Z,24.69
2022-09-23T08:26:53.388Z,24.23
2022-09-23T08:29:29.761Z,24.32
2022-09-23T08:32:05.776Z,23.78
2022-09-23T08:34:34.384Z,24.56
2022-09-23T08:37:04.155Z,25.19
2022-09-23T08:39:31.713Z,24.97
2022-09-23T08:42:05.086Z,24.84
2022-09-23T08:44:47.738Z,25.33
2022-09-23T08:47:20.914Z,25.70
2022-09-23T08:50:06.634Z,25.26
2022-09-23T08:52:42.718Z,24.71
2022-09-23T08:55:21.172Z,25.30
2022-09-23T08:58:26.453Z,25.59
2022-09-23T09:01:02.466Z,25.37
2022-09-23T09:03:56.239Z,25.33
2022-09-23T09:06:36.195Z,24.08
2022-09-23T09:09:31.645Z,23.84
2022-09-23T09:12:19.478Z,23.40
2022-09-23T09:15:02.949Z,23.23
2022-09-23T09:17:45.820Z,22.27
2022-09-23T09:20:19.878Z,22.95
2022-09-23T09:22:57.691Z,22.87
2022-09-23T09:25:40.782Z,22.62
2022-09-23T09:28:18.970Z,22.44
2022-09-23T09:30:51.473Z,22.79
2022-09-23T09:33:27.592Z,22.05
2022-09-23T09:36:13.766Z,23.43
2022-09-23T09:38:41.321Z,23.33
2022-09-23T09:41:18.043Z,24.17
2022-09-23T09:43:52.576Z,24.43
2022-09-23T09:46:48.378Z,24.51
2022-09-23T09:49:42.243Z,23.84
2022-09-23T09:52:29.883Z,22.44
2022-09-23T09:55:29.621Z,22.92
2022-09-23T09:58:05.157Z,23.34
2022-09-23T10:00:32.630Z,23.59
2022-09-23T10:03:17.285Z,22.63
2022-09-23T10:05:44.889Z,22.69
2022-09-23T10:08:38.329Z,23.71
2022-09-23T10:11:12.207Z,23.78
2022-09-23T10:13:39.912Z,23.15
2022-09-23T10:16:07.819Z,22.05
2022-09-23T10:18:40.677Z,23.39
2022-09-23T10:21:12.663Z,23.25
2022-09-23T10:23:45.585Z,22.42
2022-09-23T10:26:16.847Z,20.48
2022-09-23T10:28:50.243Z,20.12
2022-09-23T10:31:25.810Z,19.28
2022-09-23T10:34:00.738Z,19.65
2022-09-23T10:36:40.139Z,19.88
2022-09-23T10:39:40.357Z,19.73
2022-09-23T10:42:44.671Z,18.66
2022-09-23T10:45:52.199Z,18.34
2022-09-23T10:48:35.906Z,18.03
2022-09-23T10:51:25.493Z,18.07
2022-09-23T10:54:18.568Z,17.80
2022-09-23T10:57:41.725Z,18.01
2022-09-23T11:00:28.878Z,18.15
2022-09-23T11:03:17.335Z,17.96
2022-09-23T11:06:05.901Z,17.92
2022-09-23T11:08:38.554Z,17.63
2022-09-23T11:11:23.167Z,17.36
2022-09-23T11:14:00.372Z,17.42
2022-09-23T11:16:46.369Z,17.63
2022-09-23T11:19:17.348Z,17.77
2022-09-23T11:22:09.380Z,18.57
2022-09-23T11:24:58.317Z,19.92
2022-09-23T11:27:41.987Z,21.22
2022-09-23T11:30:12.712Z,20.74
2022-09-23T11:32:48.192Z,20.46
2022-09-23T11:35:44.814Z,20.66
2022-09-23T11:38:25.227Z,21.14
2022-09-23T11:41:25.733Z,20.40
2022-09-23T11:44:40.242Z,19.76
2022-09-23T11:47:19.598Z,19.09
2022-09-23T11:50:06.673Z,18.66
2022-09-23T11:52:45.729Z,18.73
2022-09-23T11:55:25.345Z,18.27
2022-09-23T11:57:56.116Z,17.96
2022-09-23T12:00:32.896Z,17.94
2022-09-23T12:03:43.085Z,17.69
2022-09-23T12:06:47.225Z,17.69
2022-09-23T12:09:47.211Z,17.50
2022-09-23T12:12:51.893Z,17.61
2022-09-23T12:15:34.400Z,17.29
2022-09-23T12:18:37.144Z,17.09
2022-09-23T12:21:49.214Z,16.96
2022-09-23T12:24:27.627Z,16.81
2022-09-23T12:27:00.331Z,16.42
2022-09-23T12:29:33.001Z,16.37
2022-09-23T12:32:01.317Z,16.35
2022-09-23T12:34:41.599Z,16.35
2022-09-23T12:37:11.266Z,16.34
2022-09-23T12:39:47.652Z,16.68
2022-09-23T12:42:23.804Z,17.02
2022-09-23T12:44:53.371Z,18.35
2022-09-23T12:47:25.216Z,20.18
2022-09-23T12:49:53.984Z,20.86
2022-09-23T12:52:28.587Z,19.78
2022-09-23T12:55:22.041Z,19.32
2022-09-23T12:57:52.097Z,18.67
2022-09-23T13:00:30.947Z,18.42
2022-09-23T13:03:21.790Z,18.17
2022-09-23T13:06:10.557Z,17.73
2022-09-23T13:08:43.719Z,17.63
2022-09-23T13:11:28.913Z,17.60
2022-09-23T13:14:03.242Z,17.87
2022-09-23T13:16:37.044Z,18.29
2022-09-23T13:19:05.933Z,18.84
2022-09-23T13:21:48.436Z,18.69
2022-09-23T13:24:26.287Z,18.39
2022-09-23T13:26:58.567Z,18.37
2022-09-23T13:29:37.561Z,18.42
2022-09-23T13:32:15.788Z,17.98
2022-09-23T13:34:47.597Z,17.99
2022-09-23T13:37:22.520Z,17.81
2022-09-23T13:39:51.459Z,17.52
2022-09-23T13:42:28.151Z,17.43
2022-09-23T13:45:00.372Z,17.54
2022-09-23T13:47:32.011Z,17.51
2022-09-23T13:49:59.682Z,17.52
2022-09-23T13:52:30.950Z,17.53
2022-09-23T13:54:58.643Z,17.62
2022-09-23T13:57:30.349Z,17.49
2022-09-23T14:00:03.104Z,17.36
2022-09-23T14:02:32.923Z,17.27
2022-09-23T14:05:12.437Z,17.20
2022-09-23T14:07:41.484Z,17.10
2022-09-23T14:10:20.077Z,16.93
2022-09-23T14:12:52.426Z,16.74
2022-09-23T14:15:23.208Z,16.54
2022-09-23T14:18:05.383Z,16.46
2022-09-23T14:20:34.275Z,16.43
2022-09-23T14:23:14.706Z,16.32
2022-09-23T14:25:45.349Z,16.19
2022-09-23T14:28:18.494Z,16.07
2022-09-23T14:30:50.939Z,16.01
2022-09-23T14:33:33.213Z,15.97
2022-09-23T14:36:16.955Z,15.93
2022-09-23T14:38:52.826Z,15.92
2022-09-23T14:41:26.415Z,15.93
2022-09-23T14:44:02.108Z,16.01
2022-09-23T14:46:38.380Z,16.13
2022-09-23T14:49:11.647Z,16.25
2022-09-23T14:51:42.289Z,16.38
2022-09-23T14:54:57.575Z,16.44
2022-09-23T14:57:25.401Z,16.63
2022-09-23T15:00:00.189Z,16.83
2022-09-23T15:02:37.955Z,16.98
2022-09-23T15:05:18.348Z,17.06
2022-09-23T15:07:50.469Z,17.10
2022-09-23T15:10:27.978Z,17.05
2022-09-23T15:13:02.521Z,17.12
2022-09-23T15:15:30.331Z,17.09
2022-09-23T15:18:05.742Z,17.04
2022-09-23T15:20:34.259Z,17.01
2022-09-23T15:23:02.187Z,16.87
2022-09-23T15:25:32.548Z,16.67
2022-09-23T15:28:13.125Z,16.46
2022-09-23T15:30:41.952Z,16.31
2022-09-23T15:33:14.099Z,16.11
2022-09-23T15:35:47.665Z,15.90
2022-09-23T15:38:18.549Z,15.71
2022-09-23T15:40:46.183Z,15.58
2022-09-23T15:43:20.709Z,15.46
2022-09-23T15:45:55.842Z,15.31
2022-09-23T15:48:32.458Z,15.17
2022-09-23T15:51:04.982Z,15.07
2022-09-23T15:53:32.555Z,14.93
2022-09-23T15:56:06.273Z,14.81
2022-09-23T15:58:37.083Z,14.71
2022-09-23T16:01:04.927Z,14.62
2022-09-23T16:03:32.688Z,14.48
2022-09-23T16:06:03.204Z,14.41
2022-09-23T16:08:32.908Z,14.30
2022-09-23T16:11:02.109Z,14.19
2022-09-23T16:13:29.863Z,14.11
2022-09-23T16:15:57.718Z,14.03
2022-09-23T16:18:25.862Z,13.98
2022-09-23T16:20:54.243Z,13.89
2022-09-23T16:23:34.318Z,13.83
2022-09-23T16:26:08.360Z,13.79
2022-09-23T16:28:36.009Z,13.69
2022-09-23T16:31:03.505Z,13.55
2022-09-23T16:33:34.593Z,13.46
2022-09-23T16:36:02.612Z,13.32
2022-09-23T16:38:30.543Z,13.19
2022-09-23T16:41:00.865Z,13.04
2022-09-23T16:43:31.625Z,12.86
2022-09-23T16:45:59.674Z,12.71
2022-09-23T16:48:29.390Z,12.53
2022-09-23T16:51:01.482Z,12.38
2022-09-23T16:53:33.080Z,12.25
2022-09-23T16:56:07.230Z,12.18
2022-09-23T16:58:34.739Z,12.06
2022-09-23T17:01:20.544Z,11.95
2022-09-23T17:03:48.245Z,11.84
2022-09-23T17:06:20.550Z,11.68
2022-09-23T17:08:49.364Z,11.57
2022-09-23T17:11:17.161Z,11.44
2022-09-23T17:13:45.643Z,11.28
2022-09-23T17:16:25.912Z,11.18
2022-09-23T17:18:55.469Z,11.04
2022-09-23T17:21:27.826Z,10.95
2022-09-23T17:23:56.814Z,10.89
2022-09-23T17:26:26.521Z,10.79
2022-09-23T17:28:55.751Z,10.71
2022-09-23T17:31:25.690Z,10.63
2022-09-23T17:33:56.214Z,10.54
2022-09-23T17:36:23.747Z,10.46
2022-09-23T17:38:53.564Z,10.39
2022-09-23T17:41:21.719Z,10.34
2022-09-23T17:43:54.569Z,10.25
2022-09-23T17:46:22.165Z,10.17
2022-09-23T17:51:45.805Z,10.08
2022-09-23T17:54:14.995Z,10.05
2022-09-23T17:56:43.455Z,10.01
2022-09-23T17:59:12.763Z,9.96
2022-09-23T18:01:41.098Z,9.91
2022-09-23T18:04:10.959Z,9.90
2022-09-23T18:06:42.439Z,9.85
2022-09-23T18:09:10.501Z,9.81
2022-09-23T18:11:40.646Z,9.78
2022-09-23T18:14:22.492Z,9.72
2022-09-23T18:17:06.786Z,9.65
2022-09-23T18:19:36.741Z,9.59
2022-09-23T18:22:04.274Z,9.57
2022-09-23T18:24:33.429Z,9.54
2022-09-23T18:27:06.539Z,9.45
2022-09-23T18:29:34.889Z,9.46
2022-09-23T18:32:05.246Z,9.37
2022-09-23T18:34:35.378Z,9.28
2022-09-23T18:37:02.940Z,9.22
2022-09-23T18:39:32.919Z,9.19
2022-09-23T18:42:02.663Z,9.13
2022-09-23T18:44:31.197Z,9.14
2022-09-23T18:46:58.714Z,9.07
2022-09-23T18:49:46.205Z,9.01
2022-09-23T18:52:13.747Z,8.96
2022-09-23T18:54:42.564Z,8.95
2022-09-23T18:57:10.050Z,8.89
2022-09-23T18:59:40.020Z,8.85
2022-09-23T19:02:07.752Z,8.72
2022-09-23T19:04:37.846Z,8.66
2022-09-23T19:07:05.560Z,8.63
2022-09-23T19:09:33.491Z,8.57
2022-09-23T19:12:02.431Z,8.54
2022-09-23T19:14:31.064Z,8.46
2022-09-23T19:17:01.281Z,8.48
2022-09-23T19:19:30.408Z,8.53
2022-09-23T19:21:58.050Z,8.50
2022-09-23T19:24:25.976Z,8.39
2022-09-23T19:26:55.440Z,8.40
2022-09-23T19:29:25.584Z,8.41
2022-09-23T19:31:53.125Z,8.42
2022-09-23T19:34:24.719Z,8.32
2022-09-23T19:36:52.820Z,8.30
2022-09-23T19:39:22.918Z,8.21
2022-09-23T19:41:52.614Z,8.21
2022-09-23T19:44:20.288Z,8.20
2022-09-23T19:46:53.406Z,8.14
2022-09-23T19:49:25.091Z,8.14
2022-09-23T19:51:55.794Z,8.13
2022-09-23T19:54:26.533Z,8.11
2022-09-23T19:56:54.237Z,8.12
2022-09-23T19:59:26.387Z,8.11
2022-09-23T20:01:54.125Z,8.04
2022-09-23T20:04:33.300Z,8.01
2022-09-23T20:07:01.074Z,8.01
2022-09-23T20:09:29.031Z,7.99
2022-09-23T20:11:56.894Z,7.94
2022-09-23T20:14:24.584Z,7.91
2022-09-23T20:16:53.093Z,7.90
2022-09-23T20:19:23.044Z,7.85
2022-09-23T20:22:08.355Z,7.84
2022-09-23T20:24:36.573Z,7.80
2022-09-23T20:27:09.130Z,7.75
2022-09-23T20:29:37.303Z,7.68
2022-09-23T20:32:05.278Z,7.63
2022-09-23T20:34:33.634Z,7.57
2022-09-23T20:37:05.279Z,7.56
2022-09-23T20:39:35.055Z,7.52
2022-09-23T20:42:06.143Z,7.47
2022-09-23T20:44:33.733Z,7.40
2022-09-23T20:47:03.778Z,7.37
2022-09-23T20:49:32.723Z,7.28
2022-09-23T20:52:00.732Z,7.29
2022-09-23T20:54:29.724Z,7.21
2022-09-23T20:56:57.351Z,7.08
2022-09-23T20:59:27.805Z,7.04
2022-09-23T21:01:58.290Z,7.01
2022-09-23T21:04:28.507Z,7.01
2022-09-23T21:06:57.455Z,6.92
2022-09-23T21:09:27.583Z,6.92
2022-09-23T21:11:55.925Z,6.91
2022-09-23T21:14:23.978Z,6.80
2022-09-23T21:16:54.697Z,6.70
2022-09-23T21:19:22.660Z,6.72
2022-09-23T21:21:50.408Z,6.60
2022-09-23T21:25:21.443Z,6.54
2022-09-23T21:27:07.492Z,6.55
2022-09-23T21:29:34.985Z,6.57
2022-09-23T21:32:02.985Z,6.58
2022-09-23T21:34:33.083Z,6.57
2022-09-23T21:37:01.875Z,6.51
2022-09-23T21:39:29.419Z,6.42
2022-09-23T21:41:59.014Z,6.32
2022-09-23T21:44:28.923Z,6.29
2022-09-23T21:46:58.192Z,6.33
2022-09-23T21:49:25.904Z,6.33
2022-09-23T21:51:58.833Z,6.31
2022-09-23T21:54:29.625Z,6.28
2022-09-23T21:56:57.154Z,6.27
2022-09-23T21:59:26.963Z,6.25
2022-09-23T22:01:56.075Z,6.22
2022-09-23T22:04:23.638Z,6.16
2022-09-23T22:06:53.970Z,6.16
2022-09-23T22:09:22.740Z,6.17
2022-09-23T22:12:11.190Z,6.17
2022-09-23T22:14:39.363Z,6.15
2022-09-23T22:17:10.554Z,6.10
2022-09-23T22:19:44.214Z,6.07
2022-09-23T22:22:15.547Z,6.10
2022-09-23T22:24:44.283Z,6.09
2022-09-23T22:27:13.701Z,6.10
2022-09-23T22:29:59.071Z,6.05
2022-09-23T22:32:43.966Z,6.08
2022-09-23T22:35:24.850Z,6.05
2022-09-23T22:37:53.405Z,6.03
2022-09-23T22:40:21.196Z,6.03
2022-09-23T22:42:49.732Z,6.04
2022-09-23T22:45:17.521Z,6.04
2022-09-23T22:47:46.037Z,6.05
2022-09-23T22:50:15.632Z,6.03
2022-09-23T22:52:43.476Z,6.04
2022-09-23T22:55:11.553Z,6.00
2022-09-23T22:57:39.147Z,5.99
2022-09-23T23:00:08.243Z,6.00
2022-09-23T23:02:37.175Z,6.00
2022-09-23T23:05:05.259Z,5.98
2022-09-23T23:07:35.064Z,5.97
2022-09-23T23:10:07.282Z,5.96
2022-09-23T23:12:34.793Z,5.97
2022-09-23T23:15:02.306Z,5.93
2022-09-23T23:17:29.981Z,5.92
2022-09-23T23:19:59.916Z,5.86
2022-09-23T23:22:29.251Z,5.84
2022-09-23T23:24:56.888Z,5.83
2022-09-23T23:27:24.385Z,5.82
2022-09-23T23:29:51.888Z,5.78
2022-09-23T23:32:19.377Z,5.74
2022-09-23T23:34:46.901Z,5.63
2022-09-23T23:37:20.776Z,5.71
2022-09-23T23:39:48.839Z,5.70
2022-09-23T23:42:18.983Z,5.68
2022-09-23T23:44:46.507Z,5.67
2022-09-23T23:47:14.001Z,5.59
2022-09-23T23:49:42.571Z,5.59
2022-09-23T23:52:12.326Z,5.62
2022-09-23T23:54:40.112Z,5.60
2022-09-23T23:57:07.691Z,5.60
2022-09-23T23:59:35.350Z,5.60
